PST,Max TemperatureF,Mean TemperatureF,Min TemperatureF,Max Dew PointF,MeanDew PointF,Min DewpointF,Max Humidity, Mean Humidity, Min Humidity, Max Sea Level PressureIn, Mean Sea Level PressureIn, Min Sea Level PressureIn, Max VisibilityMiles, Mean VisibilityMiles, Min VisibilityMiles, Max Wind SpeedMPH, Mean Wind SpeedMPH, Max Gust SpeedMPH,PrecipitationIn, CloudCover, Events, WindDirDegrees
2012-11-1,55,52,50,54,50,50,100,88,82,29.97,29.81,29.67,10,10,9,10,5,20,0.00,6,Rain,182
2012-11-2,59,55,51,54,50,48,100,83,72,29.99,29.95,29.88,10,10,5,17,5,26,0.02,4,Rain,169
2012-11-3,55,53,51,54,51,48,100,88,77,30.14,29.98,29.88,10,10,3,16,10,25,0.00,5,Rain,184
2012-11-4,62,56,51,57,54,50,100,92,82,30.23,30.14,30.06,10,9,2,20,6,32,0.08,7,Rain,178
2012-11-5,55,50,44,48,45,41,100,85,62,30.37,30.31,30.17,10,10,7,9,3,,0.00,0,,209
2012-11-6,53,50,46,50,47,41,100,94,71,30.17,29.98,29.87,10,9,3,18,4,24,0.11,4,Rain,221
2012-11-7,51,46,41,41,39,37,93,76,58,30.10,30.04,29.95,10,10,10,9,5,,0.00,2,Rain,201
2012-11-8,48,44,39,41,38,28,87,77,53,29.94,29.87,29.83,10,10,10,22,7,29,0.00,0,,12
2012-11-9,44,38,32,32,28,23,93,60,46,29.93,29.89,29.85,10,10,10,9,3,,0.00,0,,6
2012-11-10,41,36,30,27,21,18,86,55,42,30.20,30.12,30.00,10,10,9,12,6,21,0.00,1,,42
2012-11-11,46,39,32,43,34,27,100,82,70,30.22,30.14,30.02,10,8,3,13,4,21,0.28,5,Rain,82
2012-11-12,50,46,42,46,45,41,93,92,87,30.16,30.10,30.03,10,9,4,13,7,16,0.00,6,Rain,180
2012-11-13,50,48,46,48,46,46,100,94,87,30.17,30.14,30.11,10,8,3,12,6,,0.00,6,Rain,188
2012-11-14,48,42,37,46,43,37,100,96,82,30.32,30.27,30.16,10,8,0,5,0,,0.00,5,Fog,283
2012-11-15,46,40,35,43,39,36,100,96,81,30.29,30.09,29.93,10,5,0,7,2,,0.00,5,Fog,4
2012-11-16,51,43,35,45,40,36,100,86,62,29.93,29.81,29.60,10,7,0,15,2,25,0.00,5,Fog-Rain,166
2012-11-17,57,50,44,46,43,39,100,79,54,29.62,29.51,29.37,10,9,2,20,10,31,0.01,3,Rain,177
2012-11-18,50,47,44,45,41,39,93,79,66,29.66,29.57,29.38,10,10,5,21,10,39,0.03,5,Rain,169
2012-11-19,50,46,41,48,45,41,100,92,81,29.64,29.45,29.28,10,8,3,16,8,32,0.46,6,Rain,176
2012-11-20,53,48,42,45,43,39,100,83,62,29.64,29.55,29.43,10,10,3,13,6,30,0.06,4,Rain,166
2012-11-21,44,40,37,45,40,36,100,93,81,30.25,29.82,29.48,10,8,3,13,3,18,0.07,4,Rain,199
2012-11-22,53,46,39,39,37,30,100,74,44,30.33,30.25,30.07,10,10,10,16,5,36,0.00,2,Rain,133
2012-11-23,50,46,42,46,43,36,100,87,58,30.10,30.03,29.99,10,8,1,15,11,36,0.06,5,Rain,184
2012-11-24,48,42,35,43,39,36,100,93,71,30.26,30.21,30.10,10,9,3,7,3,,0.00,1,,200
2012-11-25,44,40,37,39,38,34,100,89,76,30.35,30.30,30.26,10,10,5,9,2,,0.00,4,Rain,355
2012-11-26,42,40,39,37,33,32,87,75,66,30.27,30.13,30.07,10,10,10,8,5,,0.00,0,,17
2012-11-27,44,40,35,36,33,32,93,74,61,30.08,30.01,29.90,10,10,10,7,2,,0.00,0,,53
2012-11-28,51,46,41,46,39,32,93,82,61,29.90,29.70,29.57,10,10,5,16,3,29,0.00,1,Rain,67
2012-11-29,59,54,50,46,44,39,82,71,48,29.63,29.49,29.37,10,10,9,15,11,31,0.00,2,Rain,171
2012-11-30,57,54,50,48,45,41,94,79,55,29.37,29.33,29.28,10,9,3,20,11,36,0.00,3,Rain,167